sensor_id;sensor_type;location;lat;lon;timestamp;P1;durP1;ratioP1;P2;durP2;ratioP2
70199;SDS011;57587;55.688;37.600;2023-03-30T00:00:33;33.92;;;16.25;;
70199;SDS011;57587;55.688;37.600;2023-03-30T00:03:00;36.75;;;16.48;;
70199;SDS011;57587;55.688;37.600;2023-03-30T00:05:30;32.17;;;16.95;;
70199;SDS011;57587;55.688;37.600;2023-03-30T00:08:00;33.33;;;15.83;;
70199;SDS011;57587;55.688;37.600;2023-03-30T00:10:28;35.70;;;16.83;;
70199;SDS011;57587;55.688;37.600;2023-03-30T00:12:55;32.05;;;15.93;;
70199;SDS011;57587;55.688;37.600;2023-03-30T00:15:23;31.92;;;15.85;;
70199;SDS011;57587;55.688;37.600;2023-03-30T00:17:51;37.90;;;15.70;;
70199;SDS011;57587;55.688;37.600;2023-03-30T00:20:20;33.03;;;15.03;;
70199;SDS011;57587;55.688;37.600;2023-03-30T00:22:47;28.75;;;14.30;;
70199;SDS011;57587;55.688;37.600;2023-03-30T00:25:15;33.58;;;16.13;;
70199;SDS011;57587;55.688;37.600;2023-03-30T00:27:44;29.92;;;15.00;;
70199;SDS011;57587;55.688;37.600;2023-03-30T00:30:13;30.67;;;15.45;;
70199;SDS011;57587;55.688;37.600;2023-03-30T00:32:42;28.40;;;14.67;;
70199;SDS011;57587;55.688;37.600;2023-03-30T00:35:10;34.28;;;15.07;;
70199;SDS011;57587;55.688;37.600;2023-03-30T00:37:38;31.20;;;14.05;;
70199;SDS011;57587;55.688;37.600;2023-03-30T00:40:06;30.05;;;14.27;;
70199;SDS011;57587;55.688;37.600;2023-03-30T00:42:35;31.33;;;14.23;;
70199;SDS011;57587;55.688;37.600;2023-03-30T00:45:08;30.53;;;13.87;;
70199;SDS011;57587;55.688;37.600;2023-03-30T00:47:40;30.77;;;14.50;;
70199;SDS011;57587;55.688;37.600;2023-03-30T00:50:12;28.40;;;13.77;;
70199;SDS011;57587;55.688;37.600;2023-03-30T00:52:40;27.58;;;13.38;;
70199;SDS011;57587;55.688;37.600;2023-03-30T00:55:10;26.42;;;12.95;;
70199;SDS011;57587;55.688;37.600;2023-03-30T00:57:39;31.83;;;14.43;;
70199;SDS011;57587;55.688;37.600;2023-03-30T01:00:09;24.80;;;12.38;;
70199;SDS011;57587;55.688;37.600;2023-03-30T01:02:39;29.67;;;13.93;;
70199;SDS011;57587;55.688;37.600;2023-03-30T01:05:12;26.25;;;13.02;;
70199;SDS011;57587;55.688;37.600;2023-03-30T01:07:40;26.10;;;11.63;;
70199;SDS011;57587;55.688;37.600;2023-03-30T01:10:12;18.63;;;9.73;;
70199;SDS011;57587;55.688;37.600;2023-03-30T01:12:39;20.33;;;10.05;;
70199;SDS011;57587;55.688;37.600;2023-03-30T01:15:06;18.52;;;8.02;;
70199;SDS011;57587;55.688;37.600;2023-03-30T01:29:01;11.20;;;6.43;;
70199;SDS011;57587;55.688;37.600;2023-03-30T01:34:52;12.63;;;6.70;;
70199;SDS011;57587;55.688;37.600;2023-03-30T01:40:09;10.27;;;5.75;;
70199;SDS011;57587;55.688;37.600;2023-03-30T01:53:23;9.13;;;5.13;;
70199;SDS011;57587;55.688;37.600;2023-03-30T01:56:04;9.75;;;5.78;;
70199;SDS011;57587;55.688;37.600;2023-03-30T02:01:26;10.25;;;5.82;;
70199;SDS011;57587;55.688;37.600;2023-03-30T02:03:58;10.20;;;6.00;;
70199;SDS011;57587;55.688;37.600;2023-03-30T02:06:32;11.82;;;6.10;;
70199;SDS011;57587;55.688;37.600;2023-03-30T02:09:10;10.65;;;6.05;;
70199;SDS011;57587;55.688;37.600;2023-03-30T02:11:42;9.13;;;5.72;;
70199;SDS011;57587;55.688;37.600;2023-03-30T02:14:14;10.50;;;6.15;;
70199;SDS011;57587;55.688;37.600;2023-03-30T02:17:04;10.53;;;5.90;;
70199;SDS011;57587;55.688;37.600;2023-03-30T02:19:39;10.90;;;5.60;;
70199;SDS011;57587;55.688;37.600;2023-03-30T02:22:07;12.18;;;6.13;;
70199;SDS011;57587;55.688;37.600;2023-03-30T02:24:35;10.20;;;5.38;;
70199;SDS011;57587;55.688;37.600;2023-03-30T02:27:02;11.60;;;5.82;;
70199;SDS011;57587;55.688;37.600;2023-03-30T02:29:30;10.70;;;5.47;;
70199;SDS011;57587;55.688;37.600;2023-03-30T02:31:59;12.20;;;6.05;;
70199;SDS011;57587;55.688;37.600;2023-03-30T02:59:26;10.40;;;5.80;;
70199;SDS011;57587;55.688;37.600;2023-03-30T03:02:16;11.40;;;7.00;;
70199;SDS011;57587;55.688;37.600;2023-03-30T03:04:55;11.10;;;6.55;;
70199;SDS011;57587;55.688;37.600;2023-03-30T03:07:42;13.32;;;6.57;;
70199;SDS011;57587;55.688;37.600;2023-03-30T03:10:10;11.57;;;6.37;;
70199;SDS011;57587;55.688;37.600;2023-03-30T03:12:38;10.48;;;5.97;;
70199;SDS011;57587;55.688;37.600;2023-03-30T03:15:05;10.27;;;5.63;;
70199;SDS011;57587;55.688;37.600;2023-03-30T03:17:38;8.90;;;5.43;;
70199;SDS011;57587;55.688;37.600;2023-03-30T03:20:06;9.95;;;5.53;;
70199;SDS011;57587;55.688;37.600;2023-03-30T03:22:36;10.77;;;5.97;;
70199;SDS011;57587;55.688;37.600;2023-03-30T03:25:03;9.70;;;5.18;;
70199;SDS011;57587;55.688;37.600;2023-03-30T03:28:00;8.93;;;5.10;;
70199;SDS011;57587;55.688;37.600;2023-03-30T03:30:34;9.32;;;5.78;;
70199;SDS011;57587;55.688;37.600;2023-03-30T03:33:07;9.18;;;4.95;;
70199;SDS011;57587;55.688;37.600;2023-03-30T03:35:35;13.07;;;5.23;;
70199;SDS011;57587;55.688;37.600;2023-03-30T03:38:07;12.27;;;6.35;;
70199;SDS011;57587;55.688;37.600;2023-03-30T03:40:34;13.80;;;7.88;;
70199;SDS011;57587;55.688;37.600;2023-03-30T03:43:02;9.68;;;5.57;;
70199;SDS011;57587;55.688;37.600;2023-03-30T03:45:29;10.00;;;5.20;;
70199;SDS011;57587;55.688;37.600;2023-03-30T03:47:58;9.40;;;5.03;;
70199;SDS011;57587;55.688;37.600;2023-03-30T03:50:39;8.57;;;5.00;;
70199;SDS011;57587;55.688;37.600;2023-03-30T03:53:08;9.15;;;4.93;;
70199;SDS011;57587;55.688;37.600;2023-03-30T03:55:35;11.35;;;6.00;;
70199;SDS011;57587;55.688;37.600;2023-03-30T03:58:03;11.32;;;5.63;;
70199;SDS011;57587;55.688;37.600;2023-03-30T04:00:33;9.70;;;5.37;;
70199;SDS011;57587;55.688;37.600;2023-03-30T04:03:00;10.77;;;5.88;;
70199;SDS011;57587;55.688;37.600;2023-03-30T04:05:28;9.02;;;5.70;;
70199;SDS011;57587;55.688;37.600;2023-03-30T04:07:55;10.25;;;5.72;;
70199;SDS011;57587;55.688;37.600;2023-03-30T04:10:22;11.43;;;5.53;;
70199;SDS011;57587;55.688;37.600;2023-03-30T04:13:08;11.13;;;6.03;;
70199;SDS011;57587;55.688;37.600;2023-03-30T04:16:03;9.77;;;5.70;;
70199;SDS011;57587;55.688;37.600;2023-03-30T04:18:45;12.23;;;6.03;;
70199;SDS011;57587;55.688;37.600;2023-03-30T04:21:31;9.63;;;5.88;;
70199;SDS011;57587;55.688;37.600;2023-03-30T04:24:08;11.95;;;5.68;;
70199;SDS011;57587;55.688;37.600;2023-03-30T04:26:56;10.37;;;6.03;;
70199;SDS011;57587;55.688;37.600;2023-03-30T04:29:47;10.20;;;5.93;;
70199;SDS011;57587;55.688;37.600;2023-03-30T04:32:37;11.35;;;5.50;;
70199;SDS011;57587;55.688;37.600;2023-03-30T04:35:10;10.65;;;5.53;;
70199;SDS011;57587;55.688;37.600;2023-03-30T04:37:55;9.95;;;5.30;;
70199;SDS011;57587;55.688;37.600;2023-03-30T04:40:50;11.37;;;6.20;;
70199;SDS011;57587;55.688;37.600;2023-03-30T04:43:36;10.55;;;5.72;;
70199;SDS011;57587;55.688;37.600;2023-03-30T04:46:32;8.35;;;5.10;;
70199;SDS011;57587;55.688;37.600;2023-03-30T04:49:18;10.88;;;6.22;;
70199;SDS011;57587;55.688;37.600;2023-03-30T04:52:23;9.98;;;5.63;;
70199;SDS011;57587;55.688;37.600;2023-03-30T04:55:09;11.60;;;6.97;;
70199;SDS011;57587;55.688;37.600;2023-03-30T04:58:04;9.05;;;5.30;;
70199;SDS011;57587;55.688;37.600;2023-03-30T05:01:00;9.82;;;5.85;;
70199;SDS011;57587;55.688;37.600;2023-03-30T05:04:02;12.45;;;5.97;;
70199;SDS011;57587;55.688;37.600;2023-03-30T05:07:17;10.85;;;5.78;;
70199;SDS011;57587;55.688;37.600;2023-03-30T05:10:00;8.10;;;4.80;;
70199;SDS011;57587;55.688;37.600;2023-03-30T05:13:00;8.70;;;5.30;;
70199;SDS011;57587;55.688;37.600;2023-03-30T05:16:05;9.93;;;5.30;;
70199;SDS011;57587;55.688;37.600;2023-03-30T05:18:47;8.05;;;4.95;;
70199;SDS011;57587;55.688;37.600;2023-03-30T05:21:46;9.73;;;5.07;;
70199;SDS011;57587;55.688;37.600;2023-03-30T05:24:24;8.70;;;4.83;;
70199;SDS011;57587;55.688;37.600;2023-03-30T05:27:18;7.00;;;4.40;;
70199;SDS011;57587;55.688;37.600;2023-03-30T05:29:48;7.50;;;4.32;;
70199;SDS011;57587;55.688;37.600;2023-03-30T05:32:33;9.38;;;5.55;;
70199;SDS011;57587;55.688;37.600;2023-03-30T05:35:20;7.13;;;4.93;;
70199;SDS011;57587;55.688;37.600;2023-03-30T05:38:10;8.80;;;5.27;;
70199;SDS011;57587;55.688;37.600;2023-03-30T05:41:06;8.48;;;5.10;;
70199;SDS011;57587;55.688;37.600;2023-03-30T05:43:52;9.13;;;4.90;;
70199;SDS011;57587;55.688;37.600;2023-03-30T05:46:46;9.10;;;5.00;;
70199;SDS011;57587;55.688;37.600;2023-03-30T05:49:32;9.38;;;5.88;;
70199;SDS011;57587;55.688;37.600;2023-03-30T05:52:22;8.73;;;5.17;;
70199;SDS011;57587;55.688;37.600;2023-03-30T05:54:53;8.35;;;4.75;;
70199;SDS011;57587;55.688;37.600;2023-03-30T05:57:30;9.05;;;5.63;;
70199;SDS011;57587;55.688;37.600;2023-03-30T06:00:09;8.57;;;4.75;;
70199;SDS011;57587;55.688;37.600;2023-03-30T06:02:50;8.55;;;4.50;;
70199;SDS011;57587;55.688;37.600;2023-03-30T06:05:20;9.33;;;5.00;;
70199;SDS011;57587;55.688;37.600;2023-03-30T06:07:47;7.47;;;4.90;;
70199;SDS011;57587;55.688;37.600;2023-03-30T06:10:15;7.40;;;4.60;;
70199;SDS011;57587;55.688;37.600;2023-03-30T06:12:44;8.30;;;4.47;;
70199;SDS011;57587;55.688;37.600;2023-03-30T06:15:31;6.70;;;4.20;;
70199;SDS011;57587;55.688;37.600;2023-03-30T06:18:13;5.83;;;3.77;;
70199;SDS011;57587;55.688;37.600;2023-03-30T06:20:49;6.70;;;3.97;;
70199;SDS011;57587;55.688;37.600;2023-03-30T06:23:17;6.70;;;4.25;;
70199;SDS011;57587;55.688;37.600;2023-03-30T06:25:47;6.35;;;4.25;;
70199;SDS011;57587;55.688;37.600;2023-03-30T06:28:22;8.45;;;4.38;;
70199;SDS011;57587;55.688;37.600;2023-03-30T06:30:50;7.33;;;4.40;;
70199;SDS011;57587;55.688;37.600;2023-03-30T06:33:21;6.75;;;4.05;;
70199;SDS011;57587;55.688;37.600;2023-03-30T06:35:53;6.15;;;4.13;;
70199;SDS011;57587;55.688;37.600;2023-03-30T06:38:22;7.13;;;4.35;;
70199;SDS011;57587;55.688;37.600;2023-03-30T06:40:51;6.68;;;4.03;;
70199;SDS011;57587;55.688;37.600;2023-03-30T06:43:22;9.00;;;3.93;;
70199;SDS011;57587;55.688;37.600;2023-03-30T06:46:00;6.72;;;3.97;;
70199;SDS011;57587;55.688;37.600;2023-03-30T06:48:27;5.93;;;4.20;;
70199;SDS011;57587;55.688;37.600;2023-03-30T06:51:13;6.20;;;4.03;;
70199;SDS011;57587;55.688;37.600;2023-03-30T06:53:41;10.55;;;4.30;;
70199;SDS011;57587;55.688;37.600;2023-03-30T06:56:08;4.93;;;3.57;;
70199;SDS011;57587;55.688;37.600;2023-03-30T06:58:51;5.28;;;4.03;;
70199;SDS011;57587;55.688;37.600;2023-03-30T07:01:18;6.35;;;3.90;;
70199;SDS011;57587;55.688;37.600;2023-03-30T07:03:57;6.63;;;4.10;;
70199;SDS011;57587;55.688;37.600;2023-03-30T07:06:45;6.70;;;4.80;;
70199;SDS011;57587;55.688;37.600;2023-03-30T07:09:12;6.67;;;5.13;;
70199;SDS011;57587;55.688;37.600;2023-03-30T07:11:40;5.50;;;4.30;;
70199;SDS011;57587;55.688;37.600;2023-03-30T07:14:07;5.28;;;3.97;;
70199;SDS011;57587;55.688;37.600;2023-03-30T07:16:37;7.78;;;3.80;;
70199;SDS011;57587;55.688;37.600;2023-03-30T07:19:05;5.07;;;3.58;;
70199;SDS011;57587;55.688;37.600;2023-03-30T07:21:32;6.17;;;3.43;;
70199;SDS011;57587;55.688;37.600;2023-03-30T07:24:00;6.80;;;3.67;;
70199;SDS011;57587;55.688;37.600;2023-03-30T07:26:34;4.93;;;3.60;;
70199;SDS011;57587;55.688;37.600;2023-03-30T07:29:05;7.35;;;3.42;;
70199;SDS011;57587;55.688;37.600;2023-03-30T07:31:34;5.55;;;3.72;;
70199;SDS011;57587;55.688;37.600;2023-03-30T07:34:04;11.30;;;3.70;;
70199;SDS011;57587;55.688;37.600;2023-03-30T07:36:37;5.63;;;3.55;;
70199;SDS011;57587;55.688;37.600;2023-03-30T07:39:04;7.63;;;4.18;;
70199;SDS011;57587;55.688;37.600;2023-03-30T07:41:36;6.82;;;3.75;;
70199;SDS011;57587;55.688;37.600;2023-03-30T07:44:03;5.43;;;3.53;;
70199;SDS011;57587;55.688;37.600;2023-03-30T07:46:30;4.50;;;3.40;;
70199;SDS011;57587;55.688;37.600;2023-03-30T07:48:59;4.70;;;3.33;;
70199;SDS011;57587;55.688;37.600;2023-03-30T07:51:26;6.30;;;3.28;;
70199;SDS011;57587;55.688;37.600;2023-03-30T07:54:32;4.70;;;3.33;;
70199;SDS011;57587;55.688;37.600;2023-03-30T07:57:06;4.50;;;3.00;;
70199;SDS011;57587;55.688;37.600;2023-03-30T07:59:34;8.83;;;3.40;;
70199;SDS011;57587;55.688;37.600;2023-03-30T08:02:21;5.63;;;3.22;;
70199;SDS011;57587;55.688;37.600;2023-03-30T08:04:51;7.82;;;3.53;;
70199;SDS011;57587;55.688;37.600;2023-03-30T08:07:26;6.78;;;3.20;;
70199;SDS011;57587;55.688;37.600;2023-03-30T08:10:02;5.70;;;3.38;;
70199;SDS011;57587;55.688;37.600;2023-03-30T08:12:29;5.53;;;3.07;;
70199;SDS011;57587;55.688;37.600;2023-03-30T08:14:56;4.93;;;3.28;;
70199;SDS011;57587;55.688;37.600;2023-03-30T08:17:24;4.90;;;3.20;;
70199;SDS011;57587;55.688;37.600;2023-03-30T08:19:51;4.68;;;3.03;;
70199;SDS011;57587;55.688;37.600;2023-03-30T08:22:18;6.10;;;3.05;;
70199;SDS011;57587;55.688;37.600;2023-03-30T08:24:46;5.47;;;2.87;;
70199;SDS011;57587;55.688;37.600;2023-03-30T08:27:13;5.25;;;3.10;;
70199;SDS011;57587;55.688;37.600;2023-03-30T08:29:41;5.65;;;3.58;;
70199;SDS011;57587;55.688;37.600;2023-03-30T08:32:08;5.55;;;3.25;;
70199;SDS011;57587;55.688;37.600;2023-03-30T08:34:35;7.30;;;3.03;;
70199;SDS011;57587;55.688;37.600;2023-03-30T08:37:02;6.83;;;3.57;;
70199;SDS011;57587;55.688;37.600;2023-03-30T08:39:31;6.18;;;3.08;;
70199;SDS011;57587;55.688;37.600;2023-03-30T08:42:01;5.72;;;3.20;;
70199;SDS011;57587;55.688;37.600;2023-03-30T08:44:38;5.25;;;3.78;;
70199;SDS011;57587;55.688;37.600;2023-03-30T08:47:12;7.95;;;3.97;;
70199;SDS011;57587;55.688;37.600;2023-03-30T08:49:58;9.97;;;3.50;;
70199;SDS011;57587;55.688;37.600;2023-03-30T08:52:32;5.35;;;3.53;;
70199;SDS011;57587;55.688;37.600;2023-03-30T08:54:59;9.13;;;4.05;;
70199;SDS011;57587;55.688;37.600;2023-03-30T08:57:46;5.03;;;3.45;;
70199;SDS011;57587;55.688;37.600;2023-03-30T09:03:29;7.77;;;3.93;;
70199;SDS011;57587;55.688;37.600;2023-03-30T09:05:55;9.02;;;3.60;;
70199;SDS011;57587;55.688;37.600;2023-03-30T09:08:29;7.90;;;3.92;;
70199;SDS011;57587;55.688;37.600;2023-03-30T09:10:59;5.18;;;3.08;;
70199;SDS011;57587;55.688;37.600;2023-03-30T09:13:33;5.00;;;3.20;;
70199;SDS011;57587;55.688;37.600;2023-03-30T09:16:04;5.53;;;3.40;;
70199;SDS011;57587;55.688;37.600;2023-03-30T09:18:35;6.63;;;2.85;;
70199;SDS011;57587;55.688;37.600;2023-03-30T09:21:05;5.32;;;2.60;;
70199;SDS011;57587;55.688;37.600;2023-03-30T09:23:32;4.00;;;2.95;;
70199;SDS011;57587;55.688;37.600;2023-03-30T09:31:43;3.97;;;2.70;;
70199;SDS011;57587;55.688;37.600;2023-03-30T09:37:01;4.90;;;2.92;;
70199;SDS011;57587;55.688;37.600;2023-03-30T09:39:33;10.40;;;3.08;;
70199;SDS011;57587;55.688;37.600;2023-03-30T09:42:21;3.90;;;3.00;;
70199;SDS011;57587;55.688;37.600;2023-03-30T09:45:16;4.38;;;3.10;;
70199;SDS011;57587;55.688;37.600;2023-03-30T09:47:45;5.50;;;3.13;;
70199;SDS011;57587;55.688;37.600;2023-03-30T09:50:16;9.88;;;4.93;;
70199;SDS011;57587;55.688;37.600;2023-03-30T09:52:53;7.65;;;3.30;;
70199;SDS011;57587;55.688;37.600;2023-03-30T09:57:48;6.38;;;3.45;;
70199;SDS011;57587;55.688;37.600;2023-03-30T10:03:00;9.75;;;4.70;;
70199;SDS011;57587;55.688;37.600;2023-03-30T10:05:29;7.57;;;3.97;;
70199;SDS011;57587;55.688;37.600;2023-03-30T10:08:05;7.20;;;4.47;;
70199;SDS011;57587;55.688;37.600;2023-03-30T10:10:55;8.73;;;3.90;;
70199;SDS011;57587;55.688;37.600;2023-03-30T10:13:34;8.02;;;4.13;;
70199;SDS011;57587;55.688;37.600;2023-03-30T10:16:07;6.32;;;4.15;;
70199;SDS011;57587;55.688;37.600;2023-03-30T10:18:54;6.30;;;4.57;;
70199;SDS011;57587;55.688;37.600;2023-03-30T10:21:30;5.73;;;3.70;;
70199;SDS011;57587;55.688;37.600;2023-03-30T10:24:06;6.13;;;3.75;;
70199;SDS011;57587;55.688;37.600;2023-03-30T10:26:49;6.20;;;4.20;;
70199;SDS011;57587;55.688;37.600;2023-03-30T10:29:27;6.30;;;3.60;;
70199;SDS011;57587;55.688;37.600;2023-03-30T10:31:59;5.53;;;3.58;;
70199;SDS011;57587;55.688;37.600;2023-03-30T10:37:37;6.63;;;3.42;;
70199;SDS011;57587;55.688;37.600;2023-03-30T10:40:15;8.70;;;4.22;;
70199;SDS011;57587;55.688;37.600;2023-03-30T10:42:45;7.35;;;3.75;;
70199;SDS011;57587;55.688;37.600;2023-03-30T10:45:18;6.68;;;3.55;;
70199;SDS011;57587;55.688;37.600;2023-03-30T11:03:47;7.55;;;4.38;;
70199;SDS011;57587;55.688;37.600;2023-03-30T11:06:22;5.68;;;3.75;;
70199;SDS011;57587;55.688;37.600;2023-03-30T11:08:57;5.28;;;3.75;;
70199;SDS011;57587;55.688;37.600;2023-03-30T11:11:39;9.60;;;4.72;;
70199;SDS011;57587;55.688;37.600;2023-03-30T11:14:41;10.57;;;4.10;;
70199;SDS011;57587;55.688;37.600;2023-03-30T11:26:03;6.00;;;4.68;;
70199;SDS011;57587;55.688;37.600;2023-03-30T11:31:13;6.25;;;4.13;;
70199;SDS011;57587;55.688;37.600;2023-03-30T11:33:43;5.47;;;4.15;;
70199;SDS011;57587;55.688;37.600;2023-03-30T11:36:39;7.03;;;4.18;;
70199;SDS011;57587;55.688;37.600;2023-03-30T11:39:17;8.82;;;4.40;;
70199;SDS011;57587;55.688;37.600;2023-03-30T11:42:32;8.30;;;3.80;;
70199;SDS011;57587;55.688;37.600;2023-03-30T11:44:57;6.95;;;3.95;;
70199;SDS011;57587;55.688;37.600;2023-03-30T11:47:39;6.78;;;4.30;;
70199;SDS011;57587;55.688;37.600;2023-03-30T11:50:25;4.75;;;3.75;;
70199;SDS011;57587;55.688;37.600;2023-03-30T11:58:34;4.72;;;3.60;;
70199;SDS011;57587;55.688;37.600;2023-03-30T12:04:10;7.40;;;4.00;;
70199;SDS011;57587;55.688;37.600;2023-03-30T12:06:46;6.72;;;4.03;;
70199;SDS011;57587;55.688;37.600;2023-03-30T12:09:23;6.33;;;3.43;;
70199;SDS011;57587;55.688;37.600;2023-03-30T12:12:17;9.10;;;3.88;;
70199;SDS011;57587;55.688;37.600;2023-03-30T12:22:42;7.23;;;3.90;;
70199;SDS011;57587;55.688;37.600;2023-03-30T12:25:23;7.47;;;4.15;;
70199;SDS011;57587;55.688;37.600;2023-03-30T12:30:54;7.13;;;3.88;;
70199;SDS011;57587;55.688;37.600;2023-03-30T12:33:33;6.22;;;4.10;;
70199;SDS011;57587;55.688;37.600;2023-03-30T12:36:03;11.27;;;4.60;;
70199;SDS011;57587;55.688;37.600;2023-03-30T12:38:48;5.57;;;4.00;;
70199;SDS011;57587;55.688;37.600;2023-03-30T12:41:15;5.68;;;4.03;;
70199;SDS011;57587;55.688;37.600;2023-03-30T12:43:47;7.07;;;3.92;;
70199;SDS011;57587;55.688;37.600;2023-03-30T12:51:56;5.72;;;4.05;;
70199;SDS011;57587;55.688;37.600;2023-03-30T12:57:34;5.68;;;3.90;;
70199;SDS011;57587;55.688;37.600;2023-03-30T13:05:43;9.23;;;3.80;;
70199;SDS011;57587;55.688;37.600;2023-03-30T13:11:04;7.72;;;3.38;;
70199;SDS011;57587;55.688;37.600;2023-03-30T13:13:49;6.07;;;3.90;;
70199;SDS011;57587;55.688;37.600;2023-03-30T13:21:55;6.97;;;3.38;;
70199;SDS011;57587;55.688;37.600;2023-03-30T13:29:59;6.63;;;3.30;;
70199;SDS011;57587;55.688;37.600;2023-03-30T13:35:24;5.82;;;3.53;;
70199;SDS011;57587;55.688;37.600;2023-03-30T13:38:10;5.95;;;3.38;;
70199;SDS011;57587;55.688;37.600;2023-03-30T13:46:43;5.70;;;3.75;;
70199;SDS011;57587;55.688;37.600;2023-03-30T13:51:57;5.93;;;3.28;;
70199;SDS011;57587;55.688;37.600;2023-03-30T13:54:32;8.98;;;3.70;;
70199;SDS011;57587;55.688;37.600;2023-03-30T13:57:05;5.47;;;3.33;;
70199;SDS011;57587;55.688;37.600;2023-03-30T13:59:37;6.82;;;3.50;;
70199;SDS011;57587;55.688;37.600;2023-03-30T14:02:13;6.50;;;3.88;;
70199;SDS011;57587;55.688;37.600;2023-03-30T14:04:42;6.20;;;4.07;;
70199;SDS011;57587;55.688;37.600;2023-03-30T14:07:13;9.43;;;3.63;;
70199;SDS011;57587;55.688;37.600;2023-03-30T14:09:42;9.23;;;3.97;;
70199;SDS011;57587;55.688;37.600;2023-03-30T14:12:28;8.25;;;3.88;;
70199;SDS011;57587;55.688;37.600;2023-03-30T14:14:57;9.00;;;4.00;;
70199;SDS011;57587;55.688;37.600;2023-03-30T14:17:25;6.93;;;3.75;;
70199;SDS011;57587;55.688;37.600;2023-03-30T14:22:44;10.03;;;3.70;;
70199;SDS011;57587;55.688;37.600;2023-03-30T14:27:55;6.05;;;3.42;;
70199;SDS011;57587;55.688;37.600;2023-03-30T14:30:24;5.82;;;3.55;;
70199;SDS011;57587;55.688;37.600;2023-03-30T14:33:04;7.93;;;4.03;;
70199;SDS011;57587;55.688;37.600;2023-03-30T14:35:35;5.53;;;3.90;;
70199;SDS011;57587;55.688;37.600;2023-03-30T14:38:08;6.82;;;4.32;;
70199;SDS011;57587;55.688;37.600;2023-03-30T14:40:42;9.63;;;4.25;;
70199;SDS011;57587;55.688;37.600;2023-03-30T14:43:15;5.25;;;3.85;;
70199;SDS011;57587;55.688;37.600;2023-03-30T14:45:53;7.75;;;4.40;;
70199;SDS011;57587;55.688;37.600;2023-03-30T14:48:27;10.70;;;4.20;;
70199;SDS011;57587;55.688;37.600;2023-03-30T14:50:55;6.32;;;4.50;;
70199;SDS011;57587;55.688;37.600;2023-03-30T14:53:24;6.72;;;4.63;;
70199;SDS011;57587;55.688;37.600;2023-03-30T14:55:54;6.20;;;4.45;;
70199;SDS011;57587;55.688;37.600;2023-03-30T14:58:24;10.98;;;5.10;;
70199;SDS011;57587;55.688;37.600;2023-03-30T15:00:54;6.40;;;4.60;;
70199;SDS011;57587;55.688;37.600;2023-03-30T15:03:28;6.47;;;4.30;;
70199;SDS011;57587;55.688;37.600;2023-03-30T15:06:01;6.32;;;4.50;;
70199;SDS011;57587;55.688;37.600;2023-03-30T15:08:32;8.65;;;5.32;;
70199;SDS011;57587;55.688;37.600;2023-03-30T15:11:08;6.75;;;4.70;;
70199;SDS011;57587;55.688;37.600;2023-03-30T15:13:43;10.43;;;5.37;;
70199;SDS011;57587;55.688;37.600;2023-03-30T15:16:21;10.95;;;5.72;;
70199;SDS011;57587;55.688;37.600;2023-03-30T15:18:54;7.72;;;5.32;;
70199;SDS011;57587;55.688;37.600;2023-03-30T15:21:37;8.20;;;5.35;;
70199;SDS011;57587;55.688;37.600;2023-03-30T15:24:06;8.02;;;5.50;;
70199;SDS011;57587;55.688;37.600;2023-03-30T15:26:36;9.90;;;5.37;;
70199;SDS011;57587;55.688;37.600;2023-03-30T15:29:10;8.65;;;5.53;;
70199;SDS011;57587;55.688;37.600;2023-03-30T15:31:41;8.25;;;5.60;;
70199;SDS011;57587;55.688;37.600;2023-03-30T15:34:16;12.02;;;5.32;;
70199;SDS011;57587;55.688;37.600;2023-03-30T15:36:43;9.70;;;5.70;;
70199;SDS011;57587;55.688;37.600;2023-03-30T15:39:19;8.67;;;6.27;;
70199;SDS011;57587;55.688;37.600;2023-03-30T15:44:23;10.90;;;6.90;;
70199;SDS011;57587;55.688;37.600;2023-03-30T15:46:53;8.10;;;5.75;;
70199;SDS011;57587;55.688;37.600;2023-03-30T15:49:22;10.30;;;6.30;;
70199;SDS011;57587;55.688;37.600;2023-03-30T15:51:59;9.50;;;5.73;;
70199;SDS011;57587;55.688;37.600;2023-03-30T15:54:49;9.50;;;6.50;;
70199;SDS011;57587;55.688;37.600;2023-03-30T15:57:27;8.70;;;6.43;;
70199;SDS011;57587;55.688;37.600;2023-03-30T15:59:56;11.98;;;6.63;;
70199;SDS011;57587;55.688;37.600;2023-03-30T16:04:59;9.50;;;6.60;;
70199;SDS011;57587;55.688;37.600;2023-03-30T16:07:28;13.15;;;8.15;;
70199;SDS011;57587;55.688;37.600;2023-03-30T16:09:57;9.30;;;7.00;;
70199;SDS011;57587;55.688;37.600;2023-03-30T16:12:25;13.45;;;6.47;;
70199;SDS011;57587;55.688;37.600;2023-03-30T16:14:55;10.63;;;6.55;;
70199;SDS011;57587;55.688;37.600;2023-03-30T16:17:22;11.57;;;6.70;;
70199;SDS011;57587;55.688;37.600;2023-03-30T16:19:49;16.58;;;7.00;;
70199;SDS011;57587;55.688;37.600;2023-03-30T16:22:16;17.95;;;7.10;;
70199;SDS011;57587;55.688;37.600;2023-03-30T16:24:44;11.32;;;6.70;;
70199;SDS011;57587;55.688;37.600;2023-03-30T16:27:11;8.57;;;6.18;;
70199;SDS011;57587;55.688;37.600;2023-03-30T16:29:39;9.87;;;6.60;;
70199;SDS011;57587;55.688;37.600;2023-03-30T16:32:06;11.60;;;6.90;;
70199;SDS011;57587;55.688;37.600;2023-03-30T16:34:34;14.25;;;7.28;;
70199;SDS011;57587;55.688;37.600;2023-03-30T16:37:02;10.25;;;7.43;;
70199;SDS011;57587;55.688;37.600;2023-03-30T16:39:36;9.40;;;6.53;;
70199;SDS011;57587;55.688;37.600;2023-03-30T16:42:04;14.33;;;7.27;;
70199;SDS011;57587;55.688;37.600;2023-03-30T16:44:31;11.55;;;6.38;;
70199;SDS011;57587;55.688;37.600;2023-03-30T16:46:58;15.73;;;6.78;;
70199;SDS011;57587;55.688;37.600;2023-03-30T16:49:25;16.08;;;6.60;;
70199;SDS011;57587;55.688;37.600;2023-03-30T16:51:52;12.48;;;7.28;;
70199;SDS011;57587;55.688;37.600;2023-03-30T16:54:23;15.30;;;7.40;;
70199;SDS011;57587;55.688;37.600;2023-03-30T16:56:58;11.93;;;6.93;;
70199;SDS011;57587;55.688;37.600;2023-03-30T16:59:27;10.77;;;7.55;;
70199;SDS011;57587;55.688;37.600;2023-03-30T17:01:56;13.00;;;7.35;;
70199;SDS011;57587;55.688;37.600;2023-03-30T17:04:24;12.98;;;7.50;;
70199;SDS011;57587;55.688;37.600;2023-03-30T17:06:52;13.87;;;7.70;;
70199;SDS011;57587;55.688;37.600;2023-03-30T17:09:20;12.80;;;7.90;;
70199;SDS011;57587;55.688;37.600;2023-03-30T17:11:48;13.02;;;7.70;;
70199;SDS011;57587;55.688;37.600;2023-03-30T17:14:17;14.07;;;8.10;;
70199;SDS011;57587;55.688;37.600;2023-03-30T17:16:46;14.88;;;7.78;;
70199;SDS011;57587;55.688;37.600;2023-03-30T17:19:13;11.37;;;7.67;;
70199;SDS011;57587;55.688;37.600;2023-03-30T17:21:40;14.70;;;8.10;;
70199;SDS011;57587;55.688;37.600;2023-03-30T17:24:11;11.52;;;7.38;;
70199;SDS011;57587;55.688;37.600;2023-03-30T17:26:40;11.65;;;7.32;;
70199;SDS011;57587;55.688;37.600;2023-03-30T17:29:08;14.85;;;7.65;;
70199;SDS011;57587;55.688;37.600;2023-03-30T17:31:36;11.63;;;6.73;;
70199;SDS011;57587;55.688;37.600;2023-03-30T17:34:04;12.90;;;7.57;;
70199;SDS011;57587;55.688;37.600;2023-03-30T17:36:33;14.48;;;7.22;;
70199;SDS011;57587;55.688;37.600;2023-03-30T17:39:00;13.90;;;8.50;;
70199;SDS011;57587;55.688;37.600;2023-03-30T17:41:31;11.73;;;7.07;;
70199;SDS011;57587;55.688;37.600;2023-03-30T17:44:01;13.57;;;8.10;;
70199;SDS011;57587;55.688;37.600;2023-03-30T17:46:28;12.07;;;8.00;;
70199;SDS011;57587;55.688;37.600;2023-03-30T17:48:56;10.98;;;7.75;;
70199;SDS011;57587;55.688;37.600;2023-03-30T17:51:24;10.30;;;7.63;;
70199;SDS011;57587;55.688;37.600;2023-03-30T17:53:51;12.90;;;8.20;;
70199;SDS011;57587;55.688;37.600;2023-03-30T17:56:18;12.30;;;8.03;;
70199;SDS011;57587;55.688;37.600;2023-03-30T17:58:45;11.85;;;8.40;;
70199;SDS011;57587;55.688;37.600;2023-03-30T18:01:14;14.15;;;8.32;;